sensor_id;sensor_type;location;lat;lon;timestamp;P1;durP1;ratioP1;P2;durP2;ratioP2
70247;SDS011;57641;51.416;5.506;2022-07-29T00:00:43;2.95;;;1.17;;
70247;SDS011;57641;51.416;5.506;2022-07-29T00:03:13;3.25;;;1.48;;
70247;SDS011;57641;51.416;5.506;2022-07-29T00:05:39;3.20;;;1.20;;
70247;SDS011;57641;51.416;5.506;2022-07-29T00:08:06;2.58;;;1.25;;
70247;SDS011;57641;51.416;5.506;2022-07-29T00:10:34;2.22;;;1.30;;
70247;SDS011;57641;51.416;5.506;2022-07-29T00:13:00;1.88;;;1.15;;
70247;SDS011;57641;51.416;5.506;2022-07-29T00:15:26;3.58;;;1.20;;
70247;SDS011;57641;51.416;5.506;2022-07-29T00:17:52;2.42;;;1.35;;
70247;SDS011;57641;51.416;5.506;2022-07-29T00:20:17;3.63;;;1.60;;
70247;SDS011;57641;51.416;5.506;2022-07-29T00:22:43;2.85;;;1.38;;
70247;SDS011;57641;51.416;5.506;2022-07-29T00:25:08;3.30;;;1.65;;
70247;SDS011;57641;51.416;5.506;2022-07-29T00:27:34;4.93;;;1.63;;
70247;SDS011;57641;51.416;5.506;2022-07-29T00:30:01;2.38;;;1.70;;
70247;SDS011;57641;51.416;5.506;2022-07-29T00:32:28;2.30;;;1.30;;
70247;SDS011;57641;51.416;5.506;2022-07-29T00:34:53;6.60;;;1.50;;
70247;SDS011;57641;51.416;5.506;2022-07-29T00:37:38;2.45;;;1.27;;
70247;SDS011;57641;51.416;5.506;2022-07-29T00:40:03;2.95;;;1.35;;
70247;SDS011;57641;51.416;5.506;2022-07-29T00:42:30;2.80;;;1.08;;
70247;SDS011;57641;51.416;5.506;2022-07-29T00:44:55;1.67;;;1.38;;
70247;SDS011;57641;51.416;5.506;2022-07-29T00:47:20;4.13;;;1.63;;
70247;SDS011;57641;51.416;5.506;2022-07-29T00:49:47;2.10;;;1.10;;
70247;SDS011;57641;51.416;5.506;2022-07-29T00:52:13;3.10;;;1.63;;
70247;SDS011;57641;51.416;5.506;2022-07-29T00:54:39;4.30;;;1.98;;
70247;SDS011;57641;51.416;5.506;2022-07-29T00:57:06;8.30;;;2.70;;
70247;SDS011;57641;51.416;5.506;2022-07-29T00:59:33;5.63;;;2.25;;
70247;SDS011;57641;51.416;5.506;2022-07-29T01:01:59;8.10;;;2.42;;
70247;SDS011;57641;51.416;5.506;2022-07-29T01:04:25;5.93;;;2.78;;
70247;SDS011;57641;51.416;5.506;2022-07-29T01:06:51;4.32;;;2.03;;
70247;SDS011;57641;51.416;5.506;2022-07-29T01:09:19;5.05;;;2.15;;
70247;SDS011;57641;51.416;5.506;2022-07-29T01:11:46;4.65;;;2.40;;
70247;SDS011;57641;51.416;5.506;2022-07-29T01:14:13;5.25;;;2.72;;
70247;SDS011;57641;51.416;5.506;2022-07-29T01:17:05;6.93;;;2.40;;
70247;SDS011;57641;51.416;5.506;2022-07-29T01:22:29;4.25;;;2.85;;
70247;SDS011;57641;51.416;5.506;2022-07-29T01:30:59;5.05;;;2.50;;
70247;SDS011;57641;51.416;5.506;2022-07-29T01:33:28;5.53;;;2.47;;
70247;SDS011;57641;51.416;5.506;2022-07-29T01:36:15;6.63;;;2.80;;
70247;SDS011;57641;51.416;5.506;2022-07-29T01:39:02;3.55;;;2.42;;
70247;SDS011;57641;51.416;5.506;2022-07-29T01:41:34;5.45;;;2.65;;
70247;SDS011;57641;51.416;5.506;2022-07-29T01:47:04;9.23;;;2.92;;
70247;SDS011;57641;51.416;5.506;2022-07-29T01:49:37;6.13;;;2.70;;
70247;SDS011;57641;51.416;5.506;2022-07-29T01:52:13;4.80;;;3.15;;
70247;SDS011;57641;51.416;5.506;2022-07-29T01:54:46;6.22;;;3.47;;
70247;SDS011;57641;51.416;5.506;2022-07-29T01:57:18;4.68;;;2.60;;
70247;SDS011;57641;51.416;5.506;2022-07-29T01:59:46;5.07;;;2.80;;
70247;SDS011;57641;51.416;5.506;2022-07-29T02:02:14;8.50;;;2.90;;
70247;SDS011;57641;51.416;5.506;2022-07-29T02:04:41;6.07;;;3.10;;
70247;SDS011;57641;51.416;5.506;2022-07-29T02:07:10;7.25;;;2.92;;
70247;SDS011;57641;51.416;5.506;2022-07-29T02:09:40;3.97;;;3.03;;
70247;SDS011;57641;51.416;5.506;2022-07-29T02:12:07;6.50;;;3.08;;
70247;SDS011;57641;51.416;5.506;2022-07-29T02:14:40;6.97;;;3.25;;
70247;SDS011;57641;51.416;5.506;2022-07-29T02:17:10;3.77;;;2.87;;
70247;SDS011;57641;51.416;5.506;2022-07-29T02:19:37;4.07;;;3.20;;
70247;SDS011;57641;51.416;5.506;2022-07-29T02:22:04;5.57;;;3.53;;
70247;SDS011;57641;51.416;5.506;2022-07-29T02:24:31;5.60;;;3.50;;
70247;SDS011;57641;51.416;5.506;2022-07-29T02:27:00;4.38;;;3.08;;
70247;SDS011;57641;51.416;5.506;2022-07-29T02:29:28;5.43;;;3.15;;
70247;SDS011;57641;51.416;5.506;2022-07-29T02:31:56;5.35;;;3.40;;
70247;SDS011;57641;51.416;5.506;2022-07-29T02:34:24;4.30;;;3.05;;
70247;SDS011;57641;51.416;5.506;2022-07-29T02:36:51;4.75;;;3.30;;
70247;SDS011;57641;51.416;5.506;2022-07-29T02:39:17;4.25;;;3.47;;
70247;SDS011;57641;51.416;5.506;2022-07-29T02:41:45;4.70;;;3.17;;
70247;SDS011;57641;51.416;5.506;2022-07-29T02:44:13;8.10;;;3.55;;
70247;SDS011;57641;51.416;5.506;2022-07-29T02:49:36;5.55;;;2.78;;
70247;SDS011;57641;51.416;5.506;2022-07-29T02:54:42;5.93;;;3.05;;
70247;SDS011;57641;51.416;5.506;2022-07-29T03:00:06;6.88;;;3.50;;
70247;SDS011;57641;51.416;5.506;2022-07-29T03:02:36;4.82;;;3.90;;
70247;SDS011;57641;51.416;5.506;2022-07-29T03:05:06;7.97;;;3.72;;
70247;SDS011;57641;51.416;5.506;2022-07-29T03:07:34;6.53;;;3.35;;
70247;SDS011;57641;51.416;5.506;2022-07-29T03:10:02;5.78;;;3.33;;
70247;SDS011;57641;51.416;5.506;2022-07-29T03:12:28;5.30;;;3.63;;
70247;SDS011;57641;51.416;5.506;2022-07-29T03:14:54;7.65;;;3.33;;
70247;SDS011;57641;51.416;5.506;2022-07-29T03:17:21;5.53;;;3.42;;
70247;SDS011;57641;51.416;5.506;2022-07-29T03:19:47;5.07;;;3.53;;
70247;SDS011;57641;51.416;5.506;2022-07-29T03:22:13;3.83;;;3.42;;
70247;SDS011;57641;51.416;5.506;2022-07-29T03:24:39;7.32;;;4.00;;
70247;SDS011;57641;51.416;5.506;2022-07-29T03:27:05;6.45;;;3.83;;
70247;SDS011;57641;51.416;5.506;2022-07-29T03:29:31;6.18;;;3.95;;
70247;SDS011;57641;51.416;5.506;2022-07-29T03:31:57;5.45;;;3.70;;
70247;SDS011;57641;51.416;5.506;2022-07-29T03:34:22;5.95;;;3.65;;
70247;SDS011;57641;51.416;5.506;2022-07-29T03:36:48;5.97;;;3.92;;
70247;SDS011;57641;51.416;5.506;2022-07-29T03:39:18;4.53;;;2.85;;
70247;SDS011;57641;51.416;5.506;2022-07-29T03:41:48;9.32;;;3.67;;
70247;SDS011;57641;51.416;5.506;2022-07-29T03:44:16;5.88;;;3.83;;
70247;SDS011;57641;51.416;5.506;2022-07-29T03:46:43;4.30;;;3.38;;
70247;SDS011;57641;51.416;5.506;2022-07-29T03:49:11;4.30;;;3.22;;
70247;SDS011;57641;51.416;5.506;2022-07-29T03:51:40;6.20;;;3.70;;
70247;SDS011;57641;51.416;5.506;2022-07-29T03:54:05;6.75;;;3.95;;
70247;SDS011;57641;51.416;5.506;2022-07-29T03:56:32;5.20;;;3.67;;
70247;SDS011;57641;51.416;5.506;2022-07-29T03:58:59;4.35;;;3.15;;
70247;SDS011;57641;51.416;5.506;2022-07-29T04:01:27;6.38;;;4.05;;
70247;SDS011;57641;51.416;5.506;2022-07-29T04:03:54;4.40;;;3.42;;
70247;SDS011;57641;51.416;5.506;2022-07-29T04:06:20;5.78;;;4.10;;
70247;SDS011;57641;51.416;5.506;2022-07-29T04:08:46;7.07;;;4.03;;
70247;SDS011;57641;51.416;5.506;2022-07-29T04:11:11;6.78;;;3.55;;
70247;SDS011;57641;51.416;5.506;2022-07-29T04:13:37;7.53;;;4.88;;
70247;SDS011;57641;51.416;5.506;2022-07-29T04:16:03;6.90;;;4.53;;
70247;SDS011;57641;51.416;5.506;2022-07-29T04:18:29;6.40;;;4.45;;
70247;SDS011;57641;51.416;5.506;2022-07-29T04:20:54;8.68;;;5.78;;
70247;SDS011;57641;51.416;5.506;2022-07-29T04:23:20;8.63;;;5.22;;
70247;SDS011;57641;51.416;5.506;2022-07-29T04:25:45;8.35;;;5.25;;
70247;SDS011;57641;51.416;5.506;2022-07-29T04:28:12;7.68;;;5.00;;
70247;SDS011;57641;51.416;5.506;2022-07-29T04:30:37;9.35;;;5.30;;
70247;SDS011;57641;51.416;5.506;2022-07-29T04:33:04;8.13;;;5.10;;
70247;SDS011;57641;51.416;5.506;2022-07-29T04:35:33;7.60;;;4.85;;
70247;SDS011;57641;51.416;5.506;2022-07-29T04:38:00;6.88;;;5.22;;
70247;SDS011;57641;51.416;5.506;2022-07-29T04:40:27;8.23;;;4.70;;
70247;SDS011;57641;51.416;5.506;2022-07-29T04:42:52;7.85;;;5.10;;
70247;SDS011;57641;51.416;5.506;2022-07-29T04:45:18;7.10;;;4.45;;
70247;SDS011;57641;51.416;5.506;2022-07-29T04:47:43;8.65;;;5.25;;
70247;SDS011;57641;51.416;5.506;2022-07-29T04:50:09;8.07;;;5.07;;
70247;SDS011;57641;51.416;5.506;2022-07-29T04:52:35;7.60;;;4.32;;
70247;SDS011;57641;51.416;5.506;2022-07-29T04:55:01;7.75;;;4.30;;
70247;SDS011;57641;51.416;5.506;2022-07-29T04:57:26;5.65;;;4.20;;
70247;SDS011;57641;51.416;5.506;2022-07-29T04:59:52;6.78;;;4.72;;
70247;SDS011;57641;51.416;5.506;2022-07-29T05:02:18;8.82;;;5.38;;
70247;SDS011;57641;51.416;5.506;2022-07-29T05:04:43;6.97;;;4.70;;
70247;SDS011;57641;51.416;5.506;2022-07-29T05:07:09;6.72;;;4.20;;
70247;SDS011;57641;51.416;5.506;2022-07-29T05:09:34;6.60;;;4.65;;
70247;SDS011;57641;51.416;5.506;2022-07-29T05:11:59;10.57;;;5.13;;
70247;SDS011;57641;51.416;5.506;2022-07-29T05:14:25;7.43;;;4.40;;
70247;SDS011;57641;51.416;5.506;2022-07-29T05:16:50;7.07;;;4.65;;
70247;SDS011;57641;51.416;5.506;2022-07-29T05:19:16;8.68;;;4.53;;
70247;SDS011;57641;51.416;5.506;2022-07-29T05:21:42;12.57;;;5.70;;
70247;SDS011;57641;51.416;5.506;2022-07-29T05:24:09;8.27;;;4.60;;
70247;SDS011;57641;51.416;5.506;2022-07-29T05:26:34;9.02;;;5.63;;
70247;SDS011;57641;51.416;5.506;2022-07-29T05:29:00;8.32;;;4.60;;
70247;SDS011;57641;51.416;5.506;2022-07-29T05:31:25;6.28;;;4.82;;
70247;SDS011;57641;51.416;5.506;2022-07-29T05:33:51;5.30;;;4.25;;
70247;SDS011;57641;51.416;5.506;2022-07-29T05:36:16;7.07;;;4.63;;
70247;SDS011;57641;51.416;5.506;2022-07-29T05:38:41;8.32;;;5.30;;
70247;SDS011;57641;51.416;5.506;2022-07-29T05:41:07;7.32;;;4.70;;
70247;SDS011;57641;51.416;5.506;2022-07-29T05:43:32;6.97;;;4.72;;
70247;SDS011;57641;51.416;5.506;2022-07-29T05:45:58;10.55;;;5.10;;
70247;SDS011;57641;51.416;5.506;2022-07-29T05:48:23;7.13;;;4.07;;
70247;SDS011;57641;51.416;5.506;2022-07-29T05:50:49;5.43;;;4.32;;
70247;SDS011;57641;51.416;5.506;2022-07-29T05:53:15;10.32;;;5.40;;
70247;SDS011;57641;51.416;5.506;2022-07-29T05:55:41;6.15;;;4.70;;
70247;SDS011;57641;51.416;5.506;2022-07-29T05:58:06;6.28;;;4.95;;
70247;SDS011;57641;51.416;5.506;2022-07-29T06:00:32;8.73;;;5.03;;
70247;SDS011;57641;51.416;5.506;2022-07-29T06:02:57;11.38;;;5.03;;
70247;SDS011;57641;51.416;5.506;2022-07-29T06:05:22;8.07;;;5.22;;
70247;SDS011;57641;51.416;5.506;2022-07-29T06:07:48;9.38;;;4.82;;
70247;SDS011;57641;51.416;5.506;2022-07-29T06:10:13;7.95;;;5.60;;
70247;SDS011;57641;51.416;5.506;2022-07-29T06:12:39;7.88;;;5.03;;
70247;SDS011;57641;51.416;5.506;2022-07-29T06:15:05;7.05;;;5.35;;
70247;SDS011;57641;51.416;5.506;2022-07-29T06:17:30;7.80;;;4.85;;
70247;SDS011;57641;51.416;5.506;2022-07-29T06:19:56;5.75;;;4.45;;
70247;SDS011;57641;51.416;5.506;2022-07-29T06:22:21;6.22;;;4.60;;
70247;SDS011;57641;51.416;5.506;2022-07-29T06:24:47;9.35;;;5.18;;
70247;SDS011;57641;51.416;5.506;2022-07-29T06:27:12;6.60;;;4.82;;
70247;SDS011;57641;51.416;5.506;2022-07-29T06:29:37;7.60;;;4.93;;
70247;SDS011;57641;51.416;5.506;2022-07-29T06:32:03;9.90;;;5.90;;
70247;SDS011;57641;51.416;5.506;2022-07-29T06:34:29;9.05;;;5.30;;
70247;SDS011;57641;51.416;5.506;2022-07-29T06:36:54;7.22;;;5.38;;
70247;SDS011;57641;51.416;5.506;2022-07-29T06:39:20;7.88;;;4.80;;
70247;SDS011;57641;51.416;5.506;2022-07-29T06:41:49;7.28;;;4.93;;
70247;SDS011;57641;51.416;5.506;2022-07-29T06:44:16;7.22;;;4.95;;
70247;SDS011;57641;51.416;5.506;2022-07-29T06:46:42;7.82;;;5.25;;
70247;SDS011;57641;51.416;5.506;2022-07-29T06:49:08;6.78;;;5.00;;
70247;SDS011;57641;51.416;5.506;2022-07-29T06:51:35;9.90;;;6.03;;
70247;SDS011;57641;51.416;5.506;2022-07-29T06:54:01;8.93;;;5.93;;
70247;SDS011;57641;51.416;5.506;2022-07-29T06:56:27;10.30;;;5.43;;
70247;SDS011;57641;51.416;5.506;2022-07-29T06:58:53;7.28;;;5.38;;
70247;SDS011;57641;51.416;5.506;2022-07-29T07:01:18;9.00;;;5.72;;
70247;SDS011;57641;51.416;5.506;2022-07-29T07:03:44;7.18;;;5.32;;
70247;SDS011;57641;51.416;5.506;2022-07-29T07:06:10;7.88;;;5.25;;
70247;SDS011;57641;51.416;5.506;2022-07-29T07:08:35;9.50;;;6.60;;
70247;SDS011;57641;51.416;5.506;2022-07-29T07:11:01;7.13;;;5.63;;
70247;SDS011;57641;51.416;5.506;2022-07-29T07:13:26;9.13;;;6.13;;
70247;SDS011;57641;51.416;5.506;2022-07-29T07:15:53;9.98;;;5.85;;
70247;SDS011;57641;51.416;5.506;2022-07-29T07:18:18;8.55;;;5.97;;
70247;SDS011;57641;51.416;5.506;2022-07-29T07:20:44;9.15;;;5.95;;
70247;SDS011;57641;51.416;5.506;2022-07-29T07:23:10;8.68;;;5.43;;
70247;SDS011;57641;51.416;5.506;2022-07-29T07:25:36;9.02;;;5.25;;
70247;SDS011;57641;51.416;5.506;2022-07-29T07:28:02;8.35;;;5.10;;
70247;SDS011;57641;51.416;5.506;2022-07-29T07:30:28;6.47;;;5.07;;
70247;SDS011;57641;51.416;5.506;2022-07-29T07:32:54;7.53;;;4.95;;
70247;SDS011;57641;51.416;5.506;2022-07-29T07:35:20;7.43;;;4.85;;
70247;SDS011;57641;51.416;5.506;2022-07-29T07:37:46;8.57;;;4.75;;
70247;SDS011;57641;51.416;5.506;2022-07-29T07:40:12;9.23;;;5.80;;
70247;SDS011;57641;51.416;5.506;2022-07-29T07:42:38;8.13;;;5.05;;
70247;SDS011;57641;51.416;5.506;2022-07-29T07:45:04;7.22;;;5.45;;
70247;SDS011;57641;51.416;5.506;2022-07-29T07:47:31;9.63;;;5.50;;
70247;SDS011;57641;51.416;5.506;2022-07-29T07:49:57;8.77;;;5.47;;
70247;SDS011;57641;51.416;5.506;2022-07-29T07:52:22;7.47;;;5.28;;
70247;SDS011;57641;51.416;5.506;2022-07-29T07:54:48;9.23;;;5.63;;
70247;SDS011;57641;51.416;5.506;2022-07-29T07:57:14;8.95;;;5.47;;
70247;SDS011;57641;51.416;5.506;2022-07-29T07:59:40;7.05;;;4.63;;
70247;SDS011;57641;51.416;5.506;2022-07-29T08:02:06;10.27;;;5.90;;
70247;SDS011;57641;51.416;5.506;2022-07-29T08:04:32;7.97;;;5.43;;
70247;SDS011;57641;51.416;5.506;2022-07-29T08:06:58;7.20;;;5.03;;
70247;SDS011;57641;51.416;5.506;2022-07-29T08:09:24;7.75;;;4.78;;
70247;SDS011;57641;51.416;5.506;2022-07-29T08:11:52;7.35;;;4.72;;
70247;SDS011;57641;51.416;5.506;2022-07-29T08:14:17;8.10;;;4.72;;
70247;SDS011;57641;51.416;5.506;2022-07-29T08:16:43;9.85;;;4.82;;
70247;SDS011;57641;51.416;5.506;2022-07-29T08:19:09;6.22;;;4.70;;
70247;SDS011;57641;51.416;5.506;2022-07-29T08:21:35;6.40;;;4.75;;
70247;SDS011;57641;51.416;5.506;2022-07-29T08:24:01;7.60;;;4.63;;
70247;SDS011;57641;51.416;5.506;2022-07-29T08:26:46;7.65;;;4.57;;
70247;SDS011;57641;51.416;5.506;2022-07-29T08:29:11;8.68;;;3.92;;
70247;SDS011;57641;51.416;5.506;2022-07-29T08:31:37;6.65;;;4.45;;
70247;SDS011;57641;51.416;5.506;2022-07-29T08:34:04;9.55;;;4.47;;
70247;SDS011;57641;51.416;5.506;2022-07-29T08:36:30;8.60;;;4.80;;
70247;SDS011;57641;51.416;5.506;2022-07-29T08:38:57;5.95;;;3.97;;
70247;SDS011;57641;51.416;5.506;2022-07-29T08:41:23;7.50;;;4.43;;
70247;SDS011;57641;51.416;5.506;2022-07-29T08:43:49;7.93;;;4.38;;
70247;SDS011;57641;51.416;5.506;2022-07-29T08:46:16;5.97;;;4.10;;
70247;SDS011;57641;51.416;5.506;2022-07-29T08:48:43;5.38;;;3.65;;
70247;SDS011;57641;51.416;5.506;2022-07-29T08:51:12;8.38;;;4.05;;
70247;SDS011;57641;51.416;5.506;2022-07-29T08:53:43;8.15;;;4.28;;
70247;SDS011;57641;51.416;5.506;2022-07-29T08:56:13;7.05;;;3.83;;
70247;SDS011;57641;51.416;5.506;2022-07-29T08:58:43;5.53;;;3.92;;
70247;SDS011;57641;51.416;5.506;2022-07-29T09:01:10;5.35;;;3.90;;
70247;SDS011;57641;51.416;5.506;2022-07-29T09:03:39;9.07;;;4.10;;
70247;SDS011;57641;51.416;5.506;2022-07-29T09:06:05;6.40;;;4.13;;
70247;SDS011;57641;51.416;5.506;2022-07-29T09:08:31;3.50;;;3.10;;
70247;SDS011;57641;51.416;5.506;2022-07-29T09:10:57;5.38;;;3.45;;
70247;SDS011;57641;51.416;5.506;2022-07-29T09:13:25;6.10;;;4.10;;
70247;SDS011;57641;51.416;5.506;2022-07-29T09:15:50;4.82;;;3.97;;
70247;SDS011;57641;51.416;5.506;2022-07-29T09:21:15;4.57;;;3.45;;
70247;SDS011;57641;51.416;5.506;2022-07-29T09:26:28;6.82;;;3.80;;
70247;SDS011;57641;51.416;5.506;2022-07-29T09:28:55;4.90;;;3.60;;
70247;SDS011;57641;51.416;5.506;2022-07-29T09:31:35;5.72;;;3.90;;
70247;SDS011;57641;51.416;5.506;2022-07-29T09:34:04;6.82;;;3.65;;
70247;SDS011;57641;51.416;5.506;2022-07-29T09:36:30;7.20;;;3.83;;
70247;SDS011;57641;51.416;5.506;2022-07-29T09:38:59;6.18;;;4.25;;
70247;SDS011;57641;51.416;5.506;2022-07-29T09:41:26;5.35;;;3.60;;
70247;SDS011;57641;51.416;5.506;2022-07-29T09:43:53;6.50;;;3.80;;
70247;SDS011;57641;51.416;5.506;2022-07-29T09:46:20;6.97;;;3.58;;
70247;SDS011;57641;51.416;5.506;2022-07-29T09:48:48;6.00;;;3.60;;
70247;SDS011;57641;51.416;5.506;2022-07-29T09:51:31;4.97;;;3.13;;
70247;SDS011;57641;51.416;5.506;2022-07-29T09:53:56;5.30;;;3.13;;
70247;SDS011;57641;51.416;5.506;2022-07-29T09:56:43;7.10;;;3.05;;
70247;SDS011;57641;51.416;5.506;2022-07-29T09:59:08;6.03;;;3.15;;
70247;SDS011;57641;51.416;5.506;2022-07-29T10:01:36;4.88;;;2.70;;
70247;SDS011;57641;51.416;5.506;2022-07-29T10:04:02;4.95;;;2.95;;
70247;SDS011;57641;51.416;5.506;2022-07-29T10:06:29;5.68;;;3.65;;
70247;SDS011;57641;51.416;5.506;2022-07-29T10:08:54;5.07;;;3.00;;
70247;SDS011;57641;51.416;5.506;2022-07-29T10:11:20;5.45;;;3.00;;
70247;SDS011;57641;51.416;5.506;2022-07-29T10:13:46;3.90;;;3.00;;
70247;SDS011;57641;51.416;5.506;2022-07-29T10:16:13;4.55;;;3.05;;
70247;SDS011;57641;51.416;5.506;2022-07-29T10:18:43;7.28;;;3.75;;
70247;SDS011;57641;51.416;5.506;2022-07-29T10:21:10;5.10;;;2.80;;
70247;SDS011;57641;51.416;5.506;2022-07-29T10:23:35;4.65;;;3.40;;
70247;SDS011;57641;51.416;5.506;2022-07-29T10:26:03;6.43;;;3.08;;
70247;SDS011;57641;51.416;5.506;2022-07-29T10:28:30;6.20;;;3.10;;
70247;SDS011;57641;51.416;5.506;2022-07-29T10:31:04;3.10;;;2.53;;
70247;SDS011;57641;51.416;5.506;2022-07-29T10:33:38;5.75;;;2.60;;
70247;SDS011;57641;51.416;5.506;2022-07-29T10:36:31;7.13;;;2.88;;
70247;SDS011;57641;51.416;5.506;2022-07-29T10:44:22;4.75;;;2.50;;
70247;SDS011;57641;51.416;5.506;2022-07-29T10:46:50;5.22;;;3.03;;
70247;SDS011;57641;51.416;5.506;2022-07-29T10:49:18;5.70;;;3.40;;
70247;SDS011;57641;51.416;5.506;2022-07-29T10:59:49;6.13;;;3.20;;
70247;SDS011;57641;51.416;5.506;2022-07-29T11:05:07;5.32;;;3.17;;
70247;SDS011;57641;51.416;5.506;2022-07-29T11:07:34;4.35;;;2.80;;
70247;SDS011;57641;51.416;5.506;2022-07-29T11:20:32;4.35;;;3.10;;
70247;SDS011;57641;51.416;5.506;2022-07-29T11:22:58;5.05;;;3.60;;
70247;SDS011;57641;51.416;5.506;2022-07-29T11:25:42;7.65;;;3.95;;
70247;SDS011;57641;51.416;5.506;2022-07-29T11:28:13;6.68;;;4.07;;
70247;SDS011;57641;51.416;5.506;2022-07-29T11:30:47;3.72;;;2.53;;
70247;SDS011;57641;51.416;5.506;2022-07-29T11:33:30;5.60;;;3.35;;
70247;SDS011;57641;51.416;5.506;2022-07-29T11:36:06;3.88;;;2.47;;
70247;SDS011;57641;51.416;5.506;2022-07-29T11:38:36;5.15;;;3.47;;
70247;SDS011;57641;51.416;5.506;2022-07-29T11:43:48;5.57;;;2.65;;
70247;SDS011;57641;51.416;5.506;2022-07-29T11:49:12;5.18;;;3.40;;
70247;SDS011;57641;51.416;5.506;2022-07-29T11:51:38;4.75;;;3.17;;
70247;SDS011;57641;51.416;5.506;2022-07-29T11:54:06;5.40;;;3.42;;
70247;SDS011;57641;51.416;5.506;2022-07-29T11:56:37;6.05;;;3.00;;
70247;SDS011;57641;51.416;5.506;2022-07-29T11:59:08;6.43;;;3.22;;
70247;SDS011;57641;51.416;5.506;2022-07-29T12:01:35;5.30;;;3.20;;
70247;SDS011;57641;51.416;5.506;2022-07-29T12:04:07;5.30;;;3.10;;
70247;SDS011;57641;51.416;5.506;2022-07-29T12:06:33;5.75;;;3.85;;
70247;SDS011;57641;51.416;5.506;2022-07-29T12:08:59;3.33;;;2.28;;
70247;SDS011;57641;51.416;5.506;2022-07-29T12:11:25;4.13;;;3.00;;
70247;SDS011;57641;51.416;5.506;2022-07-29T12:13:51;6.22;;;2.38;;
70247;SDS011;57641;51.416;5.506;2022-07-29T12:16:18;3.63;;;2.50;;
70247;SDS011;57641;51.416;5.506;2022-07-29T12:18:57;5.07;;;2.53;;
70247;SDS011;57641;51.416;5.506;2022-07-29T12:21:23;5.65;;;2.28;;
70247;SDS011;57641;51.416;5.506;2022-07-29T12:23:53;5.38;;;3.53;;
70247;SDS011;57641;51.416;5.506;2022-07-29T12:26:22;5.93;;;2.88;;
70247;SDS011;57641;51.416;5.506;2022-07-29T12:28:47;5.50;;;3.10;;
70247;SDS011;57641;51.416;5.506;2022-07-29T12:31:14;5.82;;;3.25;;
70247;SDS011;57641;51.416;5.506;2022-07-29T12:33:40;7.25;;;3.35;;
70247;SDS011;57641;51.416;5.506;2022-07-29T12:36:06;6.60;;;3.40;;
70247;SDS011;57641;51.416;5.506;2022-07-29T12:38:36;4.95;;;2.80;;
70247;SDS011;57641;51.416;5.506;2022-07-29T12:41:05;4.47;;;2.35;;
70247;SDS011;57641;51.416;5.506;2022-07-29T12:43:31;4.57;;;2.33;;
70247;SDS011;57641;51.416;5.506;2022-07-29T12:45:58;3.97;;;2.40;;
70247;SDS011;57641;51.416;5.506;2022-07-29T12:48:39;6.38;;;2.55;;
70247;SDS011;57641;51.416;5.506;2022-07-29T12:51:06;2.70;;;1.60;;
70247;SDS011;57641;51.416;5.506;2022-07-29T12:53:34;4.15;;;2.55;;
70247;SDS011;57641;51.416;5.506;2022-07-29T12:56:01;4.25;;;2.70;;
70247;SDS011;57641;51.416;5.506;2022-07-29T12:58:34;3.05;;;2.00;;
70247;SDS011;57641;51.416;5.506;2022-07-29T13:01:14;6.15;;;2.97;;
70247;SDS011;57641;51.416;5.506;2022-07-29T13:03:56;3.03;;;2.00;;
70247;SDS011;57641;51.416;5.506;2022-07-29T13:11:34;4.13;;;1.88;;
70247;SDS011;57641;51.416;5.506;2022-07-29T13:14:05;4.15;;;2.35;;
70247;SDS011;57641;51.416;5.506;2022-07-29T13:16:33;4.35;;;2.22;;
70247;SDS011;57641;51.416;5.506;2022-07-29T13:19:03;2.95;;;2.10;;
70247;SDS011;57641;51.416;5.506;2022-07-29T13:21:33;3.53;;;2.30;;
70247;SDS011;57641;51.416;5.506;2022-07-29T13:24:00;2.75;;;2.00;;
70247;SDS011;57641;51.416;5.506;2022-07-29T13:26:25;4.75;;;2.13;;
70247;SDS011;57641;51.416;5.506;2022-07-29T13:28:51;4.30;;;1.98;;
70247;SDS011;57641;51.416;5.506;2022-07-29T13:31:16;4.28;;;1.90;;
70247;SDS011;57641;51.416;5.506;2022-07-29T13:33:42;3.13;;;1.80;;
70247;SDS011;57641;51.416;5.506;2022-07-29T13:36:07;3.35;;;1.60;;
70247;SDS011;57641;51.416;5.506;2022-07-29T13:38:32;3.15;;;1.98;;
70247;SDS011;57641;51.416;5.506;2022-07-29T13:40:59;3.13;;;2.10;;
70247;SDS011;57641;51.416;5.506;2022-07-29T13:43:25;2.80;;;1.70;;
70247;SDS011;57641;51.416;5.506;2022-07-29T13:45:51;2.85;;;1.58;;
70247;SDS011;57641;51.416;5.506;2022-07-29T13:48:17;3.13;;;1.58;;
70247;SDS011;57641;51.416;5.506;2022-07-29T13:50:42;2.53;;;1.65;;
70247;SDS011;57641;51.416;5.506;2022-07-29T13:53:08;4.70;;;1.85;;
70247;SDS011;57641;51.416;5.506;2022-07-29T13:55:33;3.53;;;1.70;;
70247;SDS011;57641;51.416;5.506;2022-07-29T13:57:59;3.17;;;1.60;;
70247;SDS011;57641;51.416;5.506;2022-07-29T14:00:25;4.60;;;1.92;;
70247;SDS011;57641;51.416;5.506;2022-07-29T14:02:51;2.33;;;1.88;;
70247;SDS011;57641;51.416;5.506;2022-07-29T14:05:17;3.17;;;1.70;;
70247;SDS011;57641;51.416;5.506;2022-07-29T14:07:43;2.60;;;2.00;;
70247;SDS011;57641;51.416;5.506;2022-07-29T14:10:09;3.40;;;1.50;;
70247;SDS011;57641;51.416;5.506;2022-07-29T14:12:34;4.18;;;1.67;;
70247;SDS011;57641;51.416;5.506;2022-07-29T14:15:00;2.88;;;1.58;;
70247;SDS011;57641;51.416;5.506;2022-07-29T14:17:26;3.30;;;2.00;;
70247;SDS011;57641;51.416;5.506;2022-07-29T14:19:52;3.13;;;1.83;;
70247;SDS011;57641;51.416;5.506;2022-07-29T14:22:17;3.50;;;1.60;;
70247;SDS011;57641;51.416;5.506;2022-07-29T14:24:44;3.58;;;1.70;;
70247;SDS011;57641;51.416;5.506;2022-07-29T14:27:10;5.28;;;1.77;;
70247;SDS011;57641;51.416;5.506;2022-07-29T14:29:36;2.75;;;1.60;;
70247;SDS011;57641;51.416;5.506;2022-07-29T14:32:02;5.10;;;2.10;;
70247;SDS011;57641;51.416;5.506;2022-07-29T14:34:28;3.97;;;1.80;;
70247;SDS011;57641;51.416;5.506;2022-07-29T14:36:54;4.40;;;2.20;;
70247;SDS011;57641;51.416;5.506;2022-07-29T14:39:23;4.82;;;2.20;;
70247;SDS011;57641;51.416;5.506;2022-07-29T14:41:49;2.58;;;1.65;;
70247;SDS011;57641;51.416;5.506;2022-07-29T14:44:16;2.83;;;1.90;;
70247;SDS011;57641;51.416;5.506;2022-07-29T14:46:43;4.53;;;1.75;;
70247;SDS011;57641;51.416;5.506;2022-07-29T14:49:08;2.58;;;1.70;;
70247;SDS011;57641;51.416;5.506;2022-07-29T14:51:34;3.90;;;2.28;;
70247;SDS011;57641;51.416;5.506;2022-07-29T14:53:59;5.80;;;2.35;;
70247;SDS011;57641;51.416;5.506;2022-07-29T14:56:25;6.45;;;2.00;;
70247;SDS011;57641;51.416;5.506;2022-07-29T14:58:50;6.78;;;2.00;;
70247;SDS011;57641;51.416;5.506;2022-07-29T15:01:15;4.45;;;1.67;;
70247;SDS011;57641;51.416;5.506;2022-07-29T15:03:41;2.88;;;1.80;;
70247;SDS011;57641;51.416;5.506;2022-07-29T15:06:06;5.70;;;2.00;;
70247;SDS011;57641;51.416;5.506;2022-07-29T15:08:32;5.25;;;2.22;;
70247;SDS011;57641;51.416;5.506;2022-07-29T15:10:57;3.63;;;2.00;;
70247;SDS011;57641;51.416;5.506;2022-07-29T15:13:24;3.03;;;1.77;;
70247;SDS011;57641;51.416;5.506;2022-07-29T15:15:50;2.95;;;1.40;;
70247;SDS011;57641;51.416;5.506;2022-07-29T15:18:16;7.20;;;1.77;;
70247;SDS011;57641;51.416;5.506;2022-07-29T15:20:42;3.28;;;1.73;;
70247;SDS011;57641;51.416;5.506;2022-07-29T15:23:10;3.95;;;1.75;;
70247;SDS011;57641;51.416;5.506;2022-07-29T15:25:37;8.40;;;2.10;;
70247;SDS011;57641;51.416;5.506;2022-07-29T15:28:03;4.35;;;1.70;;
70247;SDS011;57641;51.416;5.506;2022-07-29T15:30:32;2.75;;;1.58;;
70247;SDS011;57641;51.416;5.506;2022-07-29T15:32:58;2.80;;;1.38;;
70247;SDS011;57641;51.416;5.506;2022-07-29T15:35:25;5.20;;;1.83;;
70247;SDS011;57641;51.416;5.506;2022-07-29T15:37:50;4.05;;;1.90;;
70247;SDS011;57641;51.416;5.506;2022-07-29T15:40:15;3.42;;;1.90;;
70247;SDS011;57641;51.416;5.506;2022-07-29T15:42:41;3.63;;;1.80;;
70247;SDS011;57641;51.416;5.506;2022-07-29T15:45:09;3.70;;;1.42;;
70247;SDS011;57641;51.416;5.506;2022-07-29T15:47:35;4.63;;;1.98;;
70247;SDS011;57641;51.416;5.506;2022-07-29T15:50:01;2.38;;;1.40;;
70247;SDS011;57641;51.416;5.506;2022-07-29T15:52:29;4.55;;;2.05;;